createdAt,value
2023-03-06T00:11:01.350Z,99
2023-03-06T00:21:01.603Z,100
2023-03-06T00:31:02.399Z,100
2023-03-06T00:51:03.236Z,100
2023-03-06T01:01:03.860Z,100
2023-03-06T01:11:04.000Z,100
2023-03-06T01:21:04.726Z,100
2023-03-06T01:31:05.714Z,100
2023-03-06T02:01:07.663Z,100
2023-03-06T02:11:08.116Z,100
2023-03-06T02:21:08.250Z,100
2023-03-06T02:31:09.143Z,100
2023-03-06T02:41:10.029Z,100
2023-03-06T02:51:10.661Z,100
2023-03-06T03:01:10.987Z,100
2023-03-06T03:11:11.481Z,100
2023-03-06T03:21:12.137Z,100
2023-03-06T03:31:12.354Z,100
2023-03-06T03:41:12.480Z,100
2023-03-06T03:51:13.426Z,100
2023-03-06T04:01:14.017Z,100
2023-03-06T04:11:15.022Z,100
2023-03-06T04:21:15.219Z,100
2023-03-06T04:31:15.607Z,100
2023-03-06T04:41:16.569Z,100
2023-03-06T04:51:16.917Z,100
2023-03-06T05:01:17.970Z,100
2023-03-06T05:11:18.689Z,100
2023-03-06T05:21:19.706Z,100
2023-03-06T05:31:20.005Z,100
2023-03-06T05:41:20.799Z,100
2023-03-06T06:11:22.975Z,100
2023-03-06T06:21:23.534Z,100
2023-03-06T06:31:24.393Z,100
2023-03-06T06:41:42.555Z,100
2023-03-06T06:51:25.623Z,100
2023-03-06T07:01:25.811Z,100
2023-03-06T07:11:26.777Z,100
2023-03-06T07:21:27.266Z,100
2023-03-06T07:31:27.487Z,100
2023-03-06T07:41:27.746Z,100
2023-03-06T07:51:28.617Z,100
2023-03-06T08:01:29.459Z,100
2023-03-06T08:11:29.707Z,100
2023-03-06T08:21:30.015Z,100
2023-03-06T08:31:30.668Z,100
2023-03-06T08:41:31.103Z,100
2023-03-06T08:51:31.697Z,100
2023-03-06T09:11:32.509Z,100
2023-03-06T09:21:32.780Z,100
2023-03-06T09:31:33.462Z,100
2023-03-06T09:41:34.313Z,100
2023-03-06T09:51:34.493Z,100
2023-03-06T10:01:35.149Z,100
2023-03-06T10:11:35.321Z,100
2023-03-06T10:21:35.713Z,100
2023-03-06T10:31:36.392Z,100
2023-03-06T10:41:36.991Z,100
2023-03-06T10:51:38.147Z,100
2023-03-06T11:01:38.957Z,100
2023-03-06T11:11:39.303Z,99
2023-03-06T11:21:39.405Z,99
2023-03-06T11:31:40.087Z,97
2023-03-06T11:41:41.123Z,96
2023-03-06T11:51:41.450Z,96
2023-03-06T12:01:42.046Z,96
2023-03-06T12:11:43.039Z,96
2023-03-06T12:21:44.129Z,94
2023-03-06T12:41:44.830Z,92
2023-03-06T12:51:45.403Z,91
2023-03-06T13:01:45.749Z,91
2023-03-06T13:11:46.054Z,87
2023-03-06T13:21:46.634Z,82
2023-03-06T13:31:47.203Z,81
2023-03-06T13:41:47.413Z,81
2023-03-06T13:51:47.955Z,81
2023-03-06T14:01:48.645Z,81
2023-03-06T14:11:48.744Z,80
2023-03-06T14:31:49.806Z,76
2023-03-06T14:41:50.685Z,75
2023-03-06T15:01:51.713Z,75
2023-03-06T15:11:52.520Z,74
2023-03-06T15:21:52.741Z,74
2023-03-06T15:31:53.602Z,70
2023-03-06T15:41:54.476Z,66
2023-03-06T15:51:54.657Z,66
2023-03-06T16:01:55.014Z,66
2023-03-06T16:11:55.326Z,67
2023-03-06T16:21:55.846Z,69
2023-03-06T16:41:57.829Z,72
2023-03-06T16:51:58.749Z,79
2023-03-06T17:01:58.934Z,82
2023-03-06T17:11:59.868Z,89
2023-03-06T17:22:00.186Z,92
2023-03-06T17:32:00.562Z,92
2023-03-06T17:42:01.154Z,92
2023-03-06T17:52:01.941Z,92
2023-03-06T18:02:02.818Z,92
2023-03-06T18:12:03.292Z,93
2023-03-06T18:22:03.868Z,94
2023-03-06T18:32:04.854Z,93
2023-03-06T18:42:05.597Z,93
2023-03-06T18:52:06.227Z,94
2023-03-06T19:02:07.323Z,94
2023-03-06T19:12:08.125Z,95
2023-03-06T19:22:08.713Z,96
2023-03-06T19:32:08.907Z,95
2023-03-06T19:52:10.396Z,95
2023-03-06T20:02:10.862Z,93
2023-03-06T20:12:11.225Z,93
2023-03-06T20:22:11.738Z,93
2023-03-06T20:32:12.226Z,92
2023-03-06T20:42:13.130Z,92
2023-03-06T20:52:13.872Z,92
2023-03-06T21:02:14.349Z,91
2023-03-06T21:12:15.371Z,91
2023-03-06T21:22:15.655Z,91
2023-03-06T21:32:16.160Z,93
2023-03-06T21:42:16.453Z,93
2023-03-06T21:52:17.508Z,94
2023-03-06T22:12:19.257Z,96
2023-03-06T22:22:20.108Z,97
2023-03-06T22:32:20.760Z,98
2023-03-06T22:42:21.430Z,99
2023-03-06T22:52:22.096Z,99
2023-03-06T23:02:22.656Z,100
2023-03-06T23:12:22.766Z,100
2023-03-06T23:22:23.480Z,100
2023-03-06T23:32:24.384Z,100
2023-03-06T23:42:24.662Z,100
2023-03-06T23:52:25.180Z,100
